sensor_id;sensor_type;location;lat;lon;timestamp;P1;durP1;ratioP1;P2;durP2;ratioP2
78402;SDS011;67687;43.508;1.504;2024-01-16T00:01:36;6.43;;;3.10;;
78402;SDS011;67687;43.508;1.504;2024-01-16T00:04:04;5.80;;;3.40;;
78402;SDS011;67687;43.508;1.504;2024-01-16T00:06:32;6.47;;;3.45;;
78402;SDS011;67687;43.508;1.504;2024-01-16T00:08:59;6.07;;;3.38;;
78402;SDS011;67687;43.508;1.504;2024-01-16T00:11:26;5.50;;;2.93;;
78402;SDS011;67687;43.508;1.504;2024-01-16T00:13:52;5.63;;;3.13;;
78402;SDS011;67687;43.508;1.504;2024-01-16T00:16:19;7.38;;;3.15;;
78402;SDS011;67687;43.508;1.504;2024-01-16T00:18:46;6.88;;;3.25;;
78402;SDS011;67687;43.508;1.504;2024-01-16T00:21:14;6.68;;;3.10;;
78402;SDS011;67687;43.508;1.504;2024-01-16T00:23:40;5.97;;;3.40;;
78402;SDS011;67687;43.508;1.504;2024-01-16T00:26:07;6.78;;;3.47;;
78402;SDS011;67687;43.508;1.504;2024-01-16T00:28:34;6.70;;;3.17;;
78402;SDS011;67687;43.508;1.504;2024-01-16T00:31:01;7.00;;;3.33;;
78402;SDS011;67687;43.508;1.504;2024-01-16T00:33:33;6.65;;;3.40;;
78402;SDS011;67687;43.508;1.504;2024-01-16T00:36:00;6.90;;;3.40;;
78402;SDS011;67687;43.508;1.504;2024-01-16T00:38:28;6.03;;;3.10;;
78402;SDS011;67687;43.508;1.504;2024-01-16T00:40:55;7.38;;;3.92;;
78402;SDS011;67687;43.508;1.504;2024-01-16T00:43:21;5.88;;;3.17;;
78402;SDS011;67687;43.508;1.504;2024-01-16T00:45:48;6.10;;;3.50;;
78402;SDS011;67687;43.508;1.504;2024-01-16T00:48:15;6.33;;;3.57;;
78402;SDS011;67687;43.508;1.504;2024-01-16T00:50:43;5.95;;;2.80;;
78402;SDS011;67687;43.508;1.504;2024-01-16T00:53:11;6.18;;;3.20;;
78402;SDS011;67687;43.508;1.504;2024-01-16T00:55:39;6.00;;;2.90;;
78402;SDS011;67687;43.508;1.504;2024-01-16T00:58:06;5.75;;;3.40;;
78402;SDS011;67687;43.508;1.504;2024-01-16T01:00:32;6.47;;;3.20;;
78402;SDS011;67687;43.508;1.504;2024-01-16T01:03:00;5.70;;;3.00;;
78402;SDS011;67687;43.508;1.504;2024-01-16T01:05:28;5.60;;;2.80;;
78402;SDS011;67687;43.508;1.504;2024-01-16T01:07:55;5.55;;;2.97;;
78402;SDS011;67687;43.508;1.504;2024-01-16T01:10:22;5.25;;;2.85;;
78402;SDS011;67687;43.508;1.504;2024-01-16T01:12:50;5.87;;;3.00;;
78402;SDS011;67687;43.508;1.504;2024-01-16T01:15:19;6.45;;;3.10;;
78402;SDS011;67687;43.508;1.504;2024-01-16T01:17:48;5.25;;;3.03;;
78402;SDS011;67687;43.508;1.504;2024-01-16T01:20:15;5.63;;;3.40;;
78402;SDS011;67687;43.508;1.504;2024-01-16T01:22:43;7.22;;;3.63;;
78402;SDS011;67687;43.508;1.504;2024-01-16T01:25:10;5.43;;;3.10;;
78402;SDS011;67687;43.508;1.504;2024-01-16T01:27:37;5.97;;;3.38;;
78402;SDS011;67687;43.508;1.504;2024-01-16T01:30:07;6.20;;;3.72;;
78402;SDS011;67687;43.508;1.504;2024-01-16T01:32:34;6.85;;;3.35;;
78402;SDS011;67687;43.508;1.504;2024-01-16T01:35:01;5.50;;;3.40;;
78402;SDS011;67687;43.508;1.504;2024-01-16T01:37:28;7.50;;;3.30;;
78402;SDS011;67687;43.508;1.504;2024-01-16T01:39:55;5.55;;;3.15;;
78402;SDS011;67687;43.508;1.504;2024-01-16T01:42:21;5.50;;;2.97;;
78402;SDS011;67687;43.508;1.504;2024-01-16T01:44:48;6.30;;;2.90;;
78402;SDS011;67687;43.508;1.504;2024-01-16T01:47:16;6.43;;;2.80;;
78402;SDS011;67687;43.508;1.504;2024-01-16T01:49:43;6.53;;;3.10;;
78402;SDS011;67687;43.508;1.504;2024-01-16T01:52:09;6.32;;;3.00;;
78402;SDS011;67687;43.508;1.504;2024-01-16T01:54:36;5.75;;;3.20;;
78402;SDS011;67687;43.508;1.504;2024-01-16T01:57:04;6.13;;;2.80;;
78402;SDS011;67687;43.508;1.504;2024-01-16T01:59:31;6.80;;;3.40;;
78402;SDS011;67687;43.508;1.504;2024-01-16T02:01:58;6.97;;;3.70;;
78402;SDS011;67687;43.508;1.504;2024-01-16T02:04:26;5.93;;;3.42;;
78402;SDS011;67687;43.508;1.504;2024-01-16T02:06:54;6.32;;;3.22;;
78402;SDS011;67687;43.508;1.504;2024-01-16T02:09:22;5.63;;;3.05;;
78402;SDS011;67687;43.508;1.504;2024-01-16T02:11:48;6.10;;;3.30;;
78402;SDS011;67687;43.508;1.504;2024-01-16T02:14:15;6.30;;;3.20;;
78402;SDS011;67687;43.508;1.504;2024-01-16T02:16:42;6.70;;;3.38;;
78402;SDS011;67687;43.508;1.504;2024-01-16T02:19:10;6.15;;;3.05;;
78402;SDS011;67687;43.508;1.504;2024-01-16T02:21:39;5.38;;;3.50;;
78402;SDS011;67687;43.508;1.504;2024-01-16T02:24:08;5.78;;;3.13;;
78402;SDS011;67687;43.508;1.504;2024-01-16T02:26:35;5.83;;;3.33;;
78402;SDS011;67687;43.508;1.504;2024-01-16T02:29:01;6.63;;;3.33;;
78402;SDS011;67687;43.508;1.504;2024-01-16T02:31:28;6.00;;;3.20;;
78402;SDS011;67687;43.508;1.504;2024-01-16T02:33:55;6.10;;;3.10;;
78402;SDS011;67687;43.508;1.504;2024-01-16T02:36:22;5.85;;;3.10;;
78402;SDS011;67687;43.508;1.504;2024-01-16T02:38:49;5.90;;;3.23;;
78402;SDS011;67687;43.508;1.504;2024-01-16T02:41:17;6.10;;;3.50;;
78402;SDS011;67687;43.508;1.504;2024-01-16T02:43:45;7.30;;;3.42;;
78402;SDS011;67687;43.508;1.504;2024-01-16T02:46:11;5.70;;;3.58;;
78402;SDS011;67687;43.508;1.504;2024-01-16T02:48:38;6.75;;;3.80;;
78402;SDS011;67687;43.508;1.504;2024-01-16T02:51:07;6.37;;;3.53;;
78402;SDS011;67687;43.508;1.504;2024-01-16T02:53:34;7.18;;;3.47;;
78402;SDS011;67687;43.508;1.504;2024-01-16T02:56:01;6.93;;;3.65;;
78402;SDS011;67687;43.508;1.504;2024-01-16T02:58:29;5.90;;;3.33;;
78402;SDS011;67687;43.508;1.504;2024-01-16T03:00:56;6.18;;;3.08;;
78402;SDS011;67687;43.508;1.504;2024-01-16T03:03:23;6.60;;;3.90;;
78402;SDS011;67687;43.508;1.504;2024-01-16T03:05:50;6.22;;;4.05;;
78402;SDS011;67687;43.508;1.504;2024-01-16T03:08:16;7.05;;;3.88;;
78402;SDS011;67687;43.508;1.504;2024-01-16T03:10:43;9.18;;;3.80;;
78402;SDS011;67687;43.508;1.504;2024-01-16T03:13:10;6.25;;;3.63;;
78402;SDS011;67687;43.508;1.504;2024-01-16T03:15:38;6.90;;;3.83;;
78402;SDS011;67687;43.508;1.504;2024-01-16T03:18:06;6.40;;;3.83;;
78402;SDS011;67687;43.508;1.504;2024-01-16T03:20:33;6.25;;;3.50;;
78402;SDS011;67687;43.508;1.504;2024-01-16T03:22:59;206.38;;;44.05;;
78402;SDS011;67687;43.508;1.504;2024-01-16T03:25:26;45.45;;;12.38;;
78402;SDS011;67687;43.508;1.504;2024-01-16T03:27:53;7.10;;;4.10;;
78402;SDS011;67687;43.508;1.504;2024-01-16T03:30:19;6.65;;;3.92;;
78402;SDS011;67687;43.508;1.504;2024-01-16T03:32:48;11.05;;;5.05;;
78402;SDS011;67687;43.508;1.504;2024-01-16T03:35:15;28.00;;;11.15;;
78402;SDS011;67687;43.508;1.504;2024-01-16T03:37:41;13.35;;;6.28;;
78402;SDS011;67687;43.508;1.504;2024-01-16T03:40:08;57.23;;;17.27;;
78402;SDS011;67687;43.508;1.504;2024-01-16T03:42:37;92.00;;;27.70;;
78402;SDS011;67687;43.508;1.504;2024-01-16T03:45:05;117.18;;;35.17;;
78402;SDS011;67687;43.508;1.504;2024-01-16T03:47:31;122.30;;;36.13;;
78402;SDS011;67687;43.508;1.504;2024-01-16T03:49:59;50.70;;;16.15;;
78402;SDS011;67687;43.508;1.504;2024-01-16T03:52:26;15.90;;;8.03;;
78402;SDS011;67687;43.508;1.504;2024-01-16T03:54:53;32.47;;;13.23;;
78402;SDS011;67687;43.508;1.504;2024-01-16T03:57:19;11.93;;;6.13;;
78402;SDS011;67687;43.508;1.504;2024-01-16T03:59:48;42.17;;;18.40;;
78402;SDS011;67687;43.508;1.504;2024-01-16T04:02:14;19.20;;;8.88;;
78402;SDS011;67687;43.508;1.504;2024-01-16T04:04:41;10.97;;;5.60;;
78402;SDS011;67687;43.508;1.504;2024-01-16T04:07:10;10.32;;;4.88;;
78402;SDS011;67687;43.508;1.504;2024-01-16T04:09:36;8.93;;;4.85;;
78402;SDS011;67687;43.508;1.504;2024-01-16T04:12:03;20.27;;;10.18;;
78402;SDS011;67687;43.508;1.504;2024-01-16T04:14:33;11.63;;;5.60;;
78402;SDS011;67687;43.508;1.504;2024-01-16T04:16:59;9.17;;;5.30;;
78402;SDS011;67687;43.508;1.504;2024-01-16T04:19:27;8.18;;;4.75;;
78402;SDS011;67687;43.508;1.504;2024-01-16T04:21:58;8.38;;;4.72;;
78402;SDS011;67687;43.508;1.504;2024-01-16T04:24:26;10.30;;;6.10;;
78402;SDS011;67687;43.508;1.504;2024-01-16T04:26:53;9.98;;;4.95;;
78402;SDS011;67687;43.508;1.504;2024-01-16T04:29:20;10.67;;;4.80;;
78402;SDS011;67687;43.508;1.504;2024-01-16T04:31:47;9.35;;;4.78;;
78402;SDS011;67687;43.508;1.504;2024-01-16T04:34:13;8.18;;;4.47;;
78402;SDS011;67687;43.508;1.504;2024-01-16T04:36:40;9.27;;;5.20;;
78402;SDS011;67687;43.508;1.504;2024-01-16T04:39:07;11.07;;;5.18;;
78402;SDS011;67687;43.508;1.504;2024-01-16T04:41:35;11.63;;;5.70;;
78402;SDS011;67687;43.508;1.504;2024-01-16T04:44:02;10.88;;;5.28;;
78402;SDS011;67687;43.508;1.504;2024-01-16T04:46:29;9.68;;;5.38;;
78402;SDS011;67687;43.508;1.504;2024-01-16T04:48:56;8.98;;;5.20;;
78402;SDS011;67687;43.508;1.504;2024-01-16T04:51:22;9.25;;;5.13;;
78402;SDS011;67687;43.508;1.504;2024-01-16T04:53:49;10.80;;;5.33;;
78402;SDS011;67687;43.508;1.504;2024-01-16T04:56:16;9.35;;;5.20;;
78402;SDS011;67687;43.508;1.504;2024-01-16T04:58:44;10.88;;;5.90;;
78402;SDS011;67687;43.508;1.504;2024-01-16T05:01:10;8.63;;;5.50;;
78402;SDS011;67687;43.508;1.504;2024-01-16T05:03:38;9.88;;;5.28;;
78402;SDS011;67687;43.508;1.504;2024-01-16T05:06:05;9.00;;;5.07;;
78402;SDS011;67687;43.508;1.504;2024-01-16T05:08:38;8.50;;;4.80;;
78402;SDS011;67687;43.508;1.504;2024-01-16T05:11:05;8.55;;;4.93;;
78402;SDS011;67687;43.508;1.504;2024-01-16T05:13:32;10.07;;;4.70;;
78402;SDS011;67687;43.508;1.504;2024-01-16T05:16:00;12.02;;;6.80;;
78402;SDS011;67687;43.508;1.504;2024-01-16T05:18:27;6.50;;;3.97;;
78402;SDS011;67687;43.508;1.504;2024-01-16T05:20:54;7.20;;;3.92;;
78402;SDS011;67687;43.508;1.504;2024-01-16T05:23:21;8.75;;;4.20;;
78402;SDS011;67687;43.508;1.504;2024-01-16T05:25:48;6.30;;;3.70;;
78402;SDS011;67687;43.508;1.504;2024-01-16T05:28:14;6.88;;;3.47;;
78402;SDS011;67687;43.508;1.504;2024-01-16T05:30:41;5.83;;;3.03;;
78402;SDS011;67687;43.508;1.504;2024-01-16T05:33:09;5.32;;;3.03;;
78402;SDS011;67687;43.508;1.504;2024-01-16T05:35:36;6.20;;;2.72;;
78402;SDS011;67687;43.508;1.504;2024-01-16T05:38:03;5.90;;;2.97;;
78402;SDS011;67687;43.508;1.504;2024-01-16T05:40:30;5.18;;;2.70;;
78402;SDS011;67687;43.508;1.504;2024-01-16T05:42:57;5.67;;;2.80;;
78402;SDS011;67687;43.508;1.504;2024-01-16T05:45:24;4.55;;;2.35;;
78402;SDS011;67687;43.508;1.504;2024-01-16T05:47:51;5.30;;;2.30;;
78402;SDS011;67687;43.508;1.504;2024-01-16T05:50:19;5.03;;;2.00;;
78402;SDS011;67687;43.508;1.504;2024-01-16T05:52:45;5.05;;;1.75;;
78402;SDS011;67687;43.508;1.504;2024-01-16T05:55:12;4.27;;;1.80;;
78402;SDS011;67687;43.508;1.504;2024-01-16T05:57:39;4.20;;;1.73;;
78402;SDS011;67687;43.508;1.504;2024-01-16T06:00:07;4.53;;;1.77;;
78402;SDS011;67687;43.508;1.504;2024-01-16T06:02:34;4.38;;;1.67;;
78402;SDS011;67687;43.508;1.504;2024-01-16T06:05:00;4.32;;;1.65;;
78402;SDS011;67687;43.508;1.504;2024-01-16T06:07:29;4.37;;;1.70;;
78402;SDS011;67687;43.508;1.504;2024-01-16T06:09:56;4.07;;;1.65;;
78402;SDS011;67687;43.508;1.504;2024-01-16T06:12:23;4.10;;;1.52;;
78402;SDS011;67687;43.508;1.504;2024-01-16T06:14:50;4.07;;;1.40;;
78402;SDS011;67687;43.508;1.504;2024-01-16T06:17:16;4.15;;;1.30;;
78402;SDS011;67687;43.508;1.504;2024-01-16T06:19:43;5.43;;;1.30;;
78402;SDS011;67687;43.508;1.504;2024-01-16T06:22:10;5.25;;;1.55;;
78402;SDS011;67687;43.508;1.504;2024-01-16T06:24:38;3.05;;;1.30;;
78402;SDS011;67687;43.508;1.504;2024-01-16T06:27:05;3.78;;;1.20;;
78402;SDS011;67687;43.508;1.504;2024-01-16T06:29:32;5.97;;;1.20;;
78402;SDS011;67687;43.508;1.504;2024-01-16T06:31:59;3.33;;;1.30;;
78402;SDS011;67687;43.508;1.504;2024-01-16T06:34:25;3.67;;;1.20;;
78402;SDS011;67687;43.508;1.504;2024-01-16T06:36:53;4.18;;;1.10;;
78402;SDS011;67687;43.508;1.504;2024-01-16T06:39:19;3.65;;;1.02;;
78402;SDS011;67687;43.508;1.504;2024-01-16T06:41:47;3.08;;;1.15;;
78402;SDS011;67687;43.508;1.504;2024-01-16T06:44:14;3.90;;;0.90;;
78402;SDS011;67687;43.508;1.504;2024-01-16T06:46:41;3.10;;;1.00;;
78402;SDS011;67687;43.508;1.504;2024-01-16T06:49:07;5.32;;;1.20;;
78402;SDS011;67687;43.508;1.504;2024-01-16T06:51:34;3.90;;;1.10;;
78402;SDS011;67687;43.508;1.504;2024-01-16T06:54:01;3.10;;;1.10;;
78402;SDS011;67687;43.508;1.504;2024-01-16T06:56:28;3.07;;;1.13;;
78402;SDS011;67687;43.508;1.504;2024-01-16T06:58:56;2.55;;;0.77;;
78402;SDS011;67687;43.508;1.504;2024-01-16T07:01:23;3.65;;;0.80;;
78402;SDS011;67687;43.508;1.504;2024-01-16T07:03:50;3.20;;;1.00;;
78402;SDS011;67687;43.508;1.504;2024-01-16T07:06:17;3.80;;;1.17;;
78402;SDS011;67687;43.508;1.504;2024-01-16T07:08:44;5.60;;;1.10;;
78402;SDS011;67687;43.508;1.504;2024-01-16T07:11:11;2.90;;;0.80;;
78402;SDS011;67687;43.508;1.504;2024-01-16T07:13:38;3.72;;;1.10;;
78402;SDS011;67687;43.508;1.504;2024-01-16T07:16:08;2.75;;;1.08;;
78402;SDS011;67687;43.508;1.504;2024-01-16T07:18:35;3.63;;;1.00;;
78402;SDS011;67687;43.508;1.504;2024-01-16T07:21:02;3.90;;;1.20;;
78402;SDS011;67687;43.508;1.504;2024-01-16T07:23:29;3.30;;;1.10;;
78402;SDS011;67687;43.508;1.504;2024-01-16T07:25:56;3.45;;;0.80;;
78402;SDS011;67687;43.508;1.504;2024-01-16T07:28:23;3.72;;;1.02;;
78402;SDS011;67687;43.508;1.504;2024-01-16T07:30:52;2.70;;;0.98;;
78402;SDS011;67687;43.508;1.504;2024-01-16T07:33:20;2.80;;;1.00;;
78402;SDS011;67687;43.508;1.504;2024-01-16T07:35:47;3.85;;;1.30;;
78402;SDS011;67687;43.508;1.504;2024-01-16T07:38:14;4.05;;;1.20;;
78402;SDS011;67687;43.508;1.504;2024-01-16T07:40:40;3.10;;;1.30;;
78402;SDS011;67687;43.508;1.504;2024-01-16T07:43:07;3.28;;;1.50;;
78402;SDS011;67687;43.508;1.504;2024-01-16T07:45:34;4.37;;;1.27;;
78402;SDS011;67687;43.508;1.504;2024-01-16T07:48:00;4.97;;;1.40;;
78402;SDS011;67687;43.508;1.504;2024-01-16T07:50:29;3.05;;;1.30;;
78402;SDS011;67687;43.508;1.504;2024-01-16T07:52:56;4.25;;;1.08;;
78402;SDS011;67687;43.508;1.504;2024-01-16T07:55:23;3.80;;;1.20;;
78402;SDS011;67687;43.508;1.504;2024-01-16T07:57:49;3.47;;;1.20;;
78402;SDS011;67687;43.508;1.504;2024-01-16T08:00:16;4.53;;;1.30;;
78402;SDS011;67687;43.508;1.504;2024-01-16T08:02:43;5.28;;;1.60;;
78402;SDS011;67687;43.508;1.504;2024-01-16T08:05:10;4.65;;;1.80;;
78402;SDS011;67687;43.508;1.504;2024-01-16T08:07:38;5.82;;;2.10;;
78402;SDS011;67687;43.508;1.504;2024-01-16T08:10:05;4.67;;;1.60;;
78402;SDS011;67687;43.508;1.504;2024-01-16T08:12:32;4.57;;;1.70;;
78402;SDS011;67687;43.508;1.504;2024-01-16T08:14:58;6.63;;;2.13;;
78402;SDS011;67687;43.508;1.504;2024-01-16T08:17:25;4.30;;;1.70;;
78402;SDS011;67687;43.508;1.504;2024-01-16T08:19:52;3.85;;;1.55;;
78402;SDS011;67687;43.508;1.504;2024-01-16T08:22:19;4.57;;;1.83;;
78402;SDS011;67687;43.508;1.504;2024-01-16T08:24:47;5.20;;;2.50;;
78402;SDS011;67687;43.508;1.504;2024-01-16T08:27:14;4.07;;;1.50;;
78402;SDS011;67687;43.508;1.504;2024-01-16T08:29:42;4.40;;;1.45;;
78402;SDS011;67687;43.508;1.504;2024-01-16T08:32:08;12.93;;;4.60;;
78402;SDS011;67687;43.508;1.504;2024-01-16T08:34:35;3.03;;;1.13;;
78402;SDS011;67687;43.508;1.504;2024-01-16T08:37:02;4.72;;;1.83;;
78402;SDS011;67687;43.508;1.504;2024-01-16T08:39:29;3.88;;;1.30;;
78402;SDS011;67687;43.508;1.504;2024-01-16T08:41:59;3.88;;;1.63;;
78402;SDS011;67687;43.508;1.504;2024-01-16T08:44:27;4.72;;;1.70;;
78402;SDS011;67687;43.508;1.504;2024-01-16T08:46:54;5.57;;;1.50;;
78402;SDS011;67687;43.508;1.504;2024-01-16T08:49:21;4.13;;;1.30;;
78402;SDS011;67687;43.508;1.504;2024-01-16T08:51:47;4.22;;;1.45;;
78402;SDS011;67687;43.508;1.504;2024-01-16T08:54:14;3.90;;;1.30;;
78402;SDS011;67687;43.508;1.504;2024-01-16T08:56:41;5.60;;;1.58;;
78402;SDS011;67687;43.508;1.504;2024-01-16T08:59:09;3.63;;;1.30;;
78402;SDS011;67687;43.508;1.504;2024-01-16T09:01:36;5.78;;;1.80;;
78402;SDS011;67687;43.508;1.504;2024-01-16T09:04:03;4.18;;;1.50;;
78402;SDS011;67687;43.508;1.504;2024-01-16T09:06:29;3.75;;;1.35;;
78402;SDS011;67687;43.508;1.504;2024-01-16T09:08:56;6.10;;;3.50;;
78402;SDS011;67687;43.508;1.504;2024-01-16T09:11:23;4.90;;;1.83;;
78402;SDS011;67687;43.508;1.504;2024-01-16T09:13:49;4.40;;;1.70;;
78402;SDS011;67687;43.508;1.504;2024-01-16T09:16:18;4.15;;;1.83;;
78402;SDS011;67687;43.508;1.504;2024-01-16T09:18:45;4.22;;;1.30;;
78402;SDS011;67687;43.508;1.504;2024-01-16T09:21:11;4.07;;;1.30;;
78402;SDS011;67687;43.508;1.504;2024-01-16T09:23:39;5.60;;;1.87;;
78402;SDS011;67687;43.508;1.504;2024-01-16T09:26:05;6.53;;;2.20;;
78402;SDS011;67687;43.508;1.504;2024-01-16T09:28:32;3.78;;;1.40;;
78402;SDS011;67687;43.508;1.504;2024-01-16T09:30:59;5.82;;;1.40;;
78402;SDS011;67687;43.508;1.504;2024-01-16T09:33:27;4.13;;;1.17;;
78402;SDS011;67687;43.508;1.504;2024-01-16T09:35:53;3.97;;;1.10;;
78402;SDS011;67687;43.508;1.504;2024-01-16T09:38:20;3.90;;;1.20;;
78402;SDS011;67687;43.508;1.504;2024-01-16T09:40:47;5.35;;;1.33;;
78402;SDS011;67687;43.508;1.504;2024-01-16T09:43:16;5.22;;;1.00;;
78402;SDS011;67687;43.508;1.504;2024-01-16T09:45:42;3.10;;;1.30;;
78402;SDS011;67687;43.508;1.504;2024-01-16T09:48:09;3.33;;;0.93;;
78402;SDS011;67687;43.508;1.504;2024-01-16T09:50:38;4.80;;;1.50;;
78402;SDS011;67687;43.508;1.504;2024-01-16T09:53:05;6.32;;;1.50;;
78402;SDS011;67687;43.508;1.504;2024-01-16T09:55:31;3.40;;;1.38;;
78402;SDS011;67687;43.508;1.504;2024-01-16T09:57:58;5.80;;;1.60;;
78402;SDS011;67687;43.508;1.504;2024-01-16T10:00:25;4.47;;;1.20;;
78402;SDS011;67687;43.508;1.504;2024-01-16T10:02:52;4.75;;;1.40;;
78402;SDS011;67687;43.508;1.504;2024-01-16T10:05:23;9.18;;;4.57;;
78402;SDS011;67687;43.508;1.504;2024-01-16T10:07:51;6.85;;;3.78;;
78402;SDS011;67687;43.508;1.504;2024-01-16T10:10:18;5.72;;;2.72;;
78402;SDS011;67687;43.508;1.504;2024-01-16T10:12:47;4.90;;;1.97;;
78402;SDS011;67687;43.508;1.504;2024-01-16T10:15:16;5.00;;;1.55;;
78402;SDS011;67687;43.508;1.504;2024-01-16T10:17:43;6.32;;;1.40;;
78402;SDS011;67687;43.508;1.504;2024-01-16T10:20:10;3.83;;;1.40;;
78402;SDS011;67687;43.508;1.504;2024-01-16T10:22:39;3.78;;;1.50;;
78402;SDS011;67687;43.508;1.504;2024-01-16T10:25:08;3.67;;;1.77;;
78402;SDS011;67687;43.508;1.504;2024-01-16T10:27:36;5.32;;;1.77;;
78402;SDS011;67687;43.508;1.504;2024-01-16T10:30:05;5.65;;;1.48;;
78402;SDS011;67687;43.508;1.504;2024-01-16T10:32:33;4.30;;;1.40;;
78402;SDS011;67687;43.508;1.504;2024-01-16T10:35:01;4.38;;;1.45;;
78402;SDS011;67687;43.508;1.504;2024-01-16T10:37:30;5.93;;;1.60;;
78402;SDS011;67687;43.508;1.504;2024-01-16T10:39:57;5.47;;;1.85;;
78402;SDS011;67687;43.508;1.504;2024-01-16T10:42:25;7.30;;;1.50;;
78402;SDS011;67687;43.508;1.504;2024-01-16T10:44:52;6.07;;;2.60;;
78402;SDS011;67687;43.508;1.504;2024-01-16T10:47:21;7.15;;;3.10;;
78402;SDS011;67687;43.508;1.504;2024-01-16T10:49:48;8.33;;;4.10;;
78402;SDS011;67687;43.508;1.504;2024-01-16T10:52:14;10.68;;;6.30;;
78402;SDS011;67687;43.508;1.504;2024-01-16T10:54:42;7.93;;;4.00;;
78402;SDS011;67687;43.508;1.504;2024-01-16T10:57:11;11.00;;;3.95;;
78402;SDS011;67687;43.508;1.504;2024-01-16T10:59:39;8.45;;;3.60;;
78402;SDS011;67687;43.508;1.504;2024-01-16T11:02:11;14.43;;;6.40;;
78402;SDS011;67687;43.508;1.504;2024-01-16T11:04:41;7.40;;;3.03;;
78402;SDS011;67687;43.508;1.504;2024-01-16T11:07:08;10.20;;;3.70;;
78402;SDS011;67687;43.508;1.504;2024-01-16T11:09:36;4.78;;;2.33;;
78402;SDS011;67687;43.508;1.504;2024-01-16T11:12:03;6.15;;;2.05;;
78402;SDS011;67687;43.508;1.504;2024-01-16T11:14:30;4.90;;;2.30;;
78402;SDS011;67687;43.508;1.504;2024-01-16T11:16:59;4.72;;;1.77;;
78402;SDS011;67687;43.508;1.504;2024-01-16T11:19:27;5.22;;;1.98;;
78402;SDS011;67687;43.508;1.504;2024-01-16T11:21:53;5.90;;;1.60;;
78402;SDS011;67687;43.508;1.504;2024-01-16T11:24:20;5.22;;;1.60;;
78402;SDS011;67687;43.508;1.504;2024-01-16T11:26:47;4.20;;;1.30;;
78402;SDS011;67687;43.508;1.504;2024-01-16T11:32:02;3.42;;;1.27;;
78402;SDS011;67687;43.508;1.504;2024-01-16T11:37:25;5.75;;;1.30;;
78402;SDS011;67687;43.508;1.504;2024-01-16T11:40:01;3.93;;;1.23;;
78402;SDS011;67687;43.508;1.504;2024-01-16T11:42:47;5.03;;;1.35;;
78402;SDS011;67687;43.508;1.504;2024-01-16T11:48:15;4.68;;;1.30;;
78402;SDS011;67687;43.508;1.504;2024-01-16T11:50:42;4.35;;;1.30;;
78402;SDS011;67687;43.508;1.504;2024-01-16T11:53:09;5.83;;;1.40;;
78402;SDS011;67687;43.508;1.504;2024-01-16T11:55:44;4.95;;;1.40;;
78402;SDS011;67687;43.508;1.504;2024-01-16T11:58:30;4.32;;;1.67;;
78402;SDS011;67687;43.508;1.504;2024-01-16T12:01:05;4.80;;;1.52;;
78402;SDS011;67687;43.508;1.504;2024-01-16T12:03:34;4.93;;;1.42;;
78402;SDS011;67687;43.508;1.504;2024-01-16T12:06:00;4.27;;;1.40;;
78402;SDS011;67687;43.508;1.504;2024-01-16T12:08:31;3.97;;;1.80;;
78402;SDS011;67687;43.508;1.504;2024-01-16T12:10:58;4.40;;;1.50;;
78402;SDS011;67687;43.508;1.504;2024-01-16T12:13:25;3.30;;;1.20;;
78402;SDS011;67687;43.508;1.504;2024-01-16T12:15:58;4.47;;;1.33;;
78402;SDS011;67687;43.508;1.504;2024-01-16T12:18:26;3.83;;;1.63;;
78402;SDS011;67687;43.508;1.504;2024-01-16T12:20:54;4.55;;;1.50;;
78402;SDS011;67687;43.508;1.504;2024-01-16T12:23:20;4.60;;;1.48;;
78402;SDS011;67687;43.508;1.504;2024-01-16T12:25:51;6.22;;;1.75;;
78402;SDS011;67687;43.508;1.504;2024-01-16T12:28:19;4.38;;;1.48;;
78402;SDS011;67687;43.508;1.504;2024-01-16T12:30:48;4.67;;;1.40;;
78402;SDS011;67687;43.508;1.504;2024-01-16T12:33:15;3.58;;;1.25;;
78402;SDS011;67687;43.508;1.504;2024-01-16T12:35:43;6.80;;;1.63;;
78402;SDS011;67687;43.508;1.504;2024-01-16T12:38:12;5.57;;;2.10;;
78402;SDS011;67687;43.508;1.504;2024-01-16T12:40:39;6.07;;;1.75;;
78402;SDS011;67687;43.508;1.504;2024-01-16T12:43:07;5.40;;;1.57;;
78402;SDS011;67687;43.508;1.504;2024-01-16T12:45:34;4.57;;;1.30;;
78402;SDS011;67687;43.508;1.504;2024-01-16T12:48:01;5.13;;;1.40;;
78402;SDS011;67687;43.508;1.504;2024-01-16T12:50:29;5.65;;;1.63;;
78402;SDS011;67687;43.508;1.504;2024-01-16T12:53:00;5.30;;;1.50;;
78402;SDS011;67687;43.508;1.504;2024-01-16T12:55:29;6.00;;;1.60;;
78402;SDS011;67687;43.508;1.504;2024-01-16T12:58:12;5.10;;;1.30;;
78402;SDS011;67687;43.508;1.504;2024-01-16T13:00:42;5.22;;;1.38;;
78402;SDS011;67687;43.508;1.504;2024-01-16T13:03:14;6.32;;;1.38;;
78402;SDS011;67687;43.508;1.504;2024-01-16T13:05:41;4.82;;;1.45;;
78402;SDS011;67687;43.508;1.504;2024-01-16T13:08:08;5.90;;;1.90;;
78402;SDS011;67687;43.508;1.504;2024-01-16T13:10:37;4.97;;;1.90;;
78402;SDS011;67687;43.508;1.504;2024-01-16T13:13:13;5.40;;;1.42;;
78402;SDS011;67687;43.508;1.504;2024-01-16T13:15:40;5.53;;;1.40;;
78402;SDS011;67687;43.508;1.504;2024-01-16T13:18:17;4.43;;;1.50;;
78402;SDS011;67687;43.508;1.504;2024-01-16T13:20:44;6.57;;;1.70;;
78402;SDS011;67687;43.508;1.504;2024-01-16T13:23:12;4.57;;;1.30;;
78402;SDS011;67687;43.508;1.504;2024-01-16T13:25:41;4.28;;;1.33;;
78402;SDS011;67687;43.508;1.504;2024-01-16T13:28:08;3.85;;;1.30;;
78402;SDS011;67687;43.508;1.504;2024-01-16T13:30:35;5.63;;;1.33;;
78402;SDS011;67687;43.508;1.504;2024-01-16T13:33:02;6.07;;;1.50;;
78402;SDS011;67687;43.508;1.504;2024-01-16T13:35:29;4.47;;;1.42;;
78402;SDS011;67687;43.508;1.504;2024-01-16T13:37:56;6.10;;;1.60;;
78402;SDS011;67687;43.508;1.504;2024-01-16T13:40:23;4.00;;;1.10;;
78402;SDS011;67687;43.508;1.504;2024-01-16T13:42:51;3.97;;;1.10;;
78402;SDS011;67687;43.508;1.504;2024-01-16T13:45:18;4.83;;;1.40;;
78402;SDS011;67687;43.508;1.504;2024-01-16T13:47:44;3.03;;;1.00;;
78402;SDS011;67687;43.508;1.504;2024-01-16T13:50:11;3.85;;;1.25;;
78402;SDS011;67687;43.508;1.504;2024-01-16T13:52:38;5.32;;;1.67;;
78402;SDS011;67687;43.508;1.504;2024-01-16T13:55:05;3.30;;;1.10;;
78402;SDS011;67687;43.508;1.504;2024-01-16T13:57:32;4.27;;;1.17;;
78402;SDS011;67687;43.508;1.504;2024-01-16T14:00:01;4.47;;;1.40;;
78402;SDS011;67687;43.508;1.504;2024-01-16T14:02:29;3.97;;;1.10;;
78402;SDS011;67687;43.508;1.504;2024-01-16T14:04:56;3.83;;;1.30;;
78402;SDS011;67687;43.508;1.504;2024-01-16T14:07:22;4.43;;;1.65;;
78402;SDS011;67687;43.508;1.504;2024-01-16T14:09:49;6.20;;;1.60;;
78402;SDS011;67687;43.508;1.504;2024-01-16T14:12:16;6.88;;;1.30;;
78402;SDS011;67687;43.508;1.504;2024-01-16T14:14:44;3.25;;;1.00;;
78402;SDS011;67687;43.508;1.504;2024-01-16T14:17:14;3.50;;;1.20;;
78402;SDS011;67687;43.508;1.504;2024-01-16T14:19:40;5.68;;;1.40;;
78402;SDS011;67687;43.508;1.504;2024-01-16T14:22:07;4.53;;;1.20;;
78402;SDS011;67687;43.508;1.504;2024-01-16T14:24:35;4.78;;;1.40;;
78402;SDS011;67687;43.508;1.504;2024-01-16T14:27:02;4.10;;;1.33;;
78402;SDS011;67687;43.508;1.504;2024-01-16T14:29:29;4.10;;;1.58;;
78402;SDS011;67687;43.508;1.504;2024-01-16T14:31:56;4.03;;;1.23;;
78402;SDS011;67687;43.508;1.504;2024-01-16T14:34:25;2.90;;;1.10;;
78402;SDS011;67687;43.508;1.504;2024-01-16T14:36:53;5.75;;;1.13;;
78402;SDS011;67687;43.508;1.504;2024-01-16T14:39:19;3.60;;;1.02;;
78402;SDS011;67687;43.508;1.504;2024-01-16T14:41:49;6.10;;;1.25;;
78402;SDS011;67687;43.508;1.504;2024-01-16T14:44:17;4.50;;;1.30;;
78402;SDS011;67687;43.508;1.504;2024-01-16T14:46:43;3.27;;;1.30;;
78402;SDS011;67687;43.508;1.504;2024-01-16T14:49:10;5.25;;;1.30;;
78402;SDS011;67687;43.508;1.504;2024-01-16T14:51:38;4.75;;;1.35;;
78402;SDS011;67687;43.508;1.504;2024-01-16T14:54:05;5.45;;;1.15;;
78402;SDS011;67687;43.508;1.504;2024-01-16T14:56:32;4.38;;;1.38;;